Time;durP1;ratioP1;P1;durP2;ratioP2;P2;SDS_P1;SDS_P2;PMS_P1;PMS_P2;Temp;Humidity;BMP_temperature;BMP_pressure;BME280_temperature;BME280_humidity;BME280_pressure;Samples;Min_cycle;Max_cycle;Signal;HPM_P1;HPM_P2
2022/01/19 00:00:38;;;;;;;18.30;8.80;;;1.60;79.10;;;;;;5058686;28;20055;-78
2022/01/19 00:03:04;;;;;;;15.70;8.68;;;1.60;79.10;;;;;;5053531;28;20057;-78
2022/01/19 00:05:30;;;;;;;20.38;8.88;;;1.60;79.20;;;;;;5053893;28;20021;-79
2022/01/19 00:07:55;;;;;;;16.15;8.40;;;1.60;79.10;;;;;;5061012;28;20035;-79
2022/01/19 00:10:27;;;;;;;16.30;8.95;;;1.60;79.30;;;;;;5079859;28;20021;-78
2022/01/19 00:12:57;;;;;;;17.90;8.98;;;1.60;79.30;;;;;;5057582;28;20029;-79
2022/01/19 00:15:24;;;;;;;19.70;8.88;;;1.50;79.40;;;;;;5054328;28;20024;-78
2022/01/19 00:17:56;;;;;;;15.48;8.13;;;1.50;79.60;;;;;;5053923;28;20111;-78
2022/01/19 00:20:24;;;;;;;17.75;9.68;;;1.50;79.70;;;;;;5053263;28;20028;-79
2022/01/19 00:22:50;;;;;;;19.92;9.88;;;1.50;79.70;;;;;;5055062;28;20032;-79
2022/01/19 00:25:17;;;;;;;24.70;11.38;;;1.50;79.80;;;;;;5054001;28;20021;-79
2022/01/19 00:27:42;;;;;;;22.13;11.80;;;1.50;80.70;;;;;;5053839;28;20032;-79
2022/01/19 00:30:09;;;;;;;20.60;10.85;;;1.40;80.40;;;;;;5053587;28;20059;-78
2022/01/19 00:32:34;;;;;;;24.63;12.25;;;1.40;80.60;;;;;;5037191;28;20025;-79
2022/01/19 00:35:01;;;;;;;22.65;11.68;;;1.40;80.70;;;;;;5053476;28;20029;-80
2022/01/19 00:37:27;;;;;;;22.55;11.50;;;1.40;80.70;;;;;;5053327;28;20045;-79
2022/01/19 00:39:53;;;;;;;18.88;10.25;;;1.30;80.90;;;;;;5053502;28;20029;-78
2022/01/19 00:42:19;;;;;;;20.50;10.45;;;1.40;80.80;;;;;;5053583;28;20560;-79
2022/01/19 00:44:45;;;;;;;21.65;10.48;;;1.40;80.80;;;;;;5036862;28;20029;-79
2022/01/19 00:47:11;;;;;;;23.50;11.40;;;1.40;80.70;;;;;;5053288;28;20078;-79
2022/01/19 00:49:36;;;;;;;22.35;10.95;;;1.40;80.50;;;;;;5053306;28;20424;-79
2022/01/19 00:52:04;;;;;;;21.98;10.73;;;1.50;80.60;;;;;;5053316;28;20029;-79
2022/01/19 00:54:30;;;;;;;21.92;10.90;;;1.50;80.60;;;;;;5036717;28;20025;-79
2022/01/19 00:56:57;;;;;;;22.08;11.30;;;1.50;80.40;;;;;;5036436;28;20037;-80
2022/01/19 00:59:22;;;;;;;26.02;11.15;;;1.50;80.20;;;;;;5053303;28;20025;-79
2022/01/19 01:01:48;;;;;;;22.38;10.80;;;1.50;80.20;;;;;;5053105;28;20029;-78
2022/01/19 01:04:14;;;;;;;21.80;10.77;;;1.50;80.10;;;;;;5052816;28;20028;-78
2022/01/19 01:06:40;;;;;;;19.00;9.55;;;1.50;80.20;;;;;;5052954;28;20027;-79
2022/01/19 01:09:05;;;;;;;18.35;10.40;;;1.50;80.40;;;;;;5052843;28;20035;-78
2022/01/19 01:11:36;;;;;;;22.90;11.07;;;1.60;80.30;;;;;;5052878;28;20028;-79
2022/01/19 01:16:50;;;;;;;24.17;12.23;;;1.60;80.20;;;;;;5054109;28;20033;-78
2022/01/19 01:19:15;;;;;;;27.73;11.52;;;1.60;80.20;;;;;;5053902;28;20450;-78
2022/01/19 01:21:40;;;;;;;27.95;11.52;;;1.60;80.10;;;;;;5052602;28;20029;-79
2022/01/19 01:24:06;;;;;;;20.15;10.75;;;1.60;80.00;;;;;;5052702;28;20025;-78
2022/01/19 01:26:32;;;;;;;25.75;12.52;;;1.60;80.10;;;;;;5052418;28;20549;-78
2022/01/19 01:28:57;;;;;;;24.20;12.25;;;1.60;80.00;;;;;;5052300;28;20545;-78
2022/01/19 01:31:23;;;;;;;21.10;11.45;;;1.60;80.00;;;;;;5052541;28;20370;-78
2022/01/19 01:33:48;;;;;;;23.10;10.32;;;1.60;80.90;;;;;;5052496;28;20025;-78
2022/01/19 01:36:15;;;;;;;25.83;12.00;;;1.60;80.10;;;;;;5052228;28;20056;-77
2022/01/19 01:38:41;;;;;;;21.05;10.15;;;1.60;80.10;;;;;;5052466;28;20024;-77
2022/01/19 01:41:09;;;;;;;20.23;9.60;;;1.60;80.00;;;;;;5052285;28;20033;-77
2022/01/19 01:43:35;;;;;;;19.65;9.25;;;1.60;80.80;;;;;;5052361;28;20031;-77
2022/01/19 01:46:08;;;;;;;18.70;9.38;;;1.70;79.90;;;;;;5052195;28;20025;-77
2022/01/19 01:48:42;;;;;;;17.35;8.73;;;1.70;79.80;;;;;;5052312;28;20025;-76
2022/01/19 01:53:57;;;;;;;20.40;10.05;;;1.80;79.70;;;;;;5053706;28;20074;-77
2022/01/19 01:56:23;;;;;;;24.58;10.32;;;1.80;79.60;;;;;;5052065;28;20029;-77
2022/01/19 01:58:49;;;;;;;20.52;8.98;;;1.80;79.10;;;;;;5035318;28;20059;-78
2022/01/19 02:01:15;;;;;;;17.80;9.05;;;1.80;79.10;;;;;;5051929;28;20457;-78
2022/01/19 02:03:43;;;;;;;27.05;10.95;;;1.80;79.20;;;;;;5051936;28;20029;-78
2022/01/19 02:08:56;;;;;;;23.60;10.38;;;1.70;79.60;;;;;;5053290;28;20028;-78
2022/01/19 02:23:21;;;;;;;17.05;9.50;;;1.80;78.50;;;;;;5053207;28;20067;-78
2022/01/19 02:25:52;;;;;;;21.17;9.07;;;1.60;78.60;;;;;;5051179;28;20078;-78
2022/01/19 02:41:49;;;;;;;21.95;10.52;;;1.50;78.90;;;;;;5072946;28;20044;-77
2022/01/19 02:44:29;;;;;;;20.42;10.18;;;1.50;78.90;;;;;;5054756;28;20024;-77
2022/01/19 02:49:39;;;;;;;21.13;9.85;;;1.50;79.20;;;;;;5072996;28;20039;-77
2022/01/19 02:52:05;;;;;;;22.05;10.80;;;1.50;80.00;;;;;;5054640;28;20028;-77
2022/01/19 02:54:30;;;;;;;19.30;10.30;;;1.50;79.10;;;;;;5054707;28;20020;-77
2022/01/19 02:57:00;;;;;;;18.63;10.50;;;1.50;79.20;;;;;;5037974;28;20037;-77
2022/01/19 02:59:42;;;;;;;18.73;10.35;;;1.50;79.40;;;;;;5072625;28;20012;-78
2022/01/19 03:10:20;;;;;;;25.10;10.85;;;1.10;80.20;;;;;;5072666;28;20441;-77
2022/01/19 03:12:46;;;;;;;23.92;11.02;;;1.10;80.50;;;;;;5054153;28;20047;-77
2022/01/19 03:15:13;;;;;;;17.90;10.38;;;1.10;81.00;;;;;;5054363;28;20036;-77
2022/01/19 03:17:39;;;;;;;18.30;10.43;;;1.10;81.20;;;;;;5054159;28;20043;-78
2022/01/19 03:20:09;;;;;;;20.38;10.27;;;1.10;81.00;;;;;;5054283;28;20111;-77
2022/01/19 03:22:52;;;;;;;16.80;9.35;;;1.20;80.60;;;;;;5054331;28;20024;-78
2022/01/19 03:25:18;;;;;;;21.73;10.15;;;1.20;80.40;;;;;;5054372;28;20048;-78
2022/01/19 03:27:47;;;;;;;20.88;10.35;;;1.20;80.30;;;;;;5053917;28;20120;-78
2022/01/19 03:30:17;;;;;;;14.18;9.52;;;1.20;80.20;;;;;;5054404;28;20043;-78
2022/01/19 03:32:44;;;;;;;19.85;11.55;;;1.20;80.10;;;;;;5054355;28;20028;-78
2022/01/19 03:35:11;;;;;;;16.30;10.25;;;1.20;80.10;;;;;;5037799;28;20500;-79
2022/01/19 03:37:37;;;;;;;21.73;10.75;;;1.30;80.10;;;;;;5052383;28;20160;-77
2022/01/19 03:40:04;;;;;;;15.27;10.13;;;1.30;79.90;;;;;;5054624;28;20477;-78
2022/01/19 03:42:30;;;;;;;16.52;9.70;;;1.30;80.00;;;;;;5054621;28;20024;-78
2022/01/19 03:44:55;;;;;;;17.55;10.55;;;1.20;80.00;;;;;;5054469;28;20496;-78
2022/01/19 03:47:21;;;;;;;23.80;10.73;;;1.30;80.10;;;;;;5054515;28;20017;-78
2022/01/19 03:49:47;;;;;;;18.95;11.13;;;1.20;80.00;;;;;;5054540;28;20470;-78
2022/01/19 03:52:12;;;;;;;18.27;10.27;;;1.10;80.20;;;;;;5054430;28;20025;-78
2022/01/19 03:54:41;;;;;;;20.52;10.88;;;1.20;80.40;;;;;;5054409;28;20181;-78
2022/01/19 03:57:08;;;;;;;18.10;10.52;;;1.10;80.60;;;;;;5054206;28;20493;-78
2022/01/19 03:59:33;;;;;;;17.90;10.35;;;1.00;80.50;;;;;;5054378;28;20029;-77
2022/01/19 04:01:59;;;;;;;21.88;11.38;;;1.10;80.70;;;;;;5054180;28;20087;-77
2022/01/19 04:09:20;;;;;;;22.20;11.25;;;0.90;81.70;;;;;;5054258;28;20091;-78
2022/01/19 04:11:46;;;;;;;21.15;12.35;;;1.00;80.90;;;;;;5055505;28;20477;-78
2022/01/19 04:14:25;;;;;;;19.17;12.23;;;1.00;80.70;;;;;;5069795;28;20071;-79
2022/01/19 04:16:53;;;;;;;19.00;12.35;;;1.00;80.60;;;;;;5066460;28;20037;-77
2022/01/19 04:21:45;;;;;;;23.63;11.63;;;0.90;80.90;;;;;;5055364;28;20052;-77
2022/01/19 04:24:11;;;;;;;20.85;11.80;;;1.00;81.00;;;;;;5053943;28;20059;-77
2022/01/19 04:26:36;;;;;;;17.48;10.77;;;1.00;81.00;;;;;;5053794;28;20577;-78
2022/01/19 04:29:03;;;;;;;18.38;11.35;;;1.00;81.00;;;;;;5053723;28;20486;-79
2022/01/19 04:31:28;;;;;;;21.70;11.57;;;1.00;80.80;;;;;;5053842;28;20028;-80
2022/01/19 04:33:59;;;;;;;19.05;11.55;;;1.00;80.60;;;;;;5053728;28;20116;-78
2022/01/19 04:36:33;;;;;;;20.63;11.20;;;1.00;80.50;;;;;;5053411;28;20060;-80
2022/01/19 05:06:26;;;;;;;23.08;13.38;;;0.90;81.40;;;;;;4992891;28;20177;-78
2022/01/19 05:08:58;;;;;;;19.58;12.70;;;0.90;81.50;;;;;;4994218;28;20065;-78
2022/01/19 05:14:08;;;;;;;25.88;14.98;;;0.80;81.50;;;;;;5054414;28;20040;-79
2022/01/19 05:16:34;;;;;;;25.70;15.48;;;0.80;81.90;;;;;;5052916;28;20033;-79
2022/01/19 05:19:01;;;;;;;21.25;13.68;;;0.70;82.20;;;;;;5052818;28;20543;-79
2022/01/19 05:21:27;;;;;;;24.15;13.43;;;0.70;82.30;;;;;;5052746;28;20469;-79
2022/01/19 05:23:52;;;;;;;24.98;14.60;;;0.70;82.20;;;;;;5052781;28;20032;-78
2022/01/19 05:26:18;;;;;;;23.80;14.10;;;0.60;82.40;;;;;;5052511;28;20457;-79
2022/01/19 05:28:44;;;;;;;23.25;14.60;;;0.60;82.70;;;;;;5052800;28;20024;-78
2022/01/19 05:31:09;;;;;;;22.60;14.25;;;0.60;82.60;;;;;;5052599;28;20021;-78
2022/01/19 05:33:35;;;;;;;22.65;14.23;;;0.50;82.60;;;;;;5052603;28;20389;-79
2022/01/19 05:36:01;;;;;;;19.27;13.70;;;0.50;82.70;;;;;;5052276;28;20090;-79
2022/01/19 05:38:26;;;;;;;21.02;13.52;;;0.50;82.60;;;;;;5052469;28;20071;-79
2022/01/19 05:40:52;;;;;;;24.80;14.27;;;0.50;82.60;;;;;;5036496;28;20075;-78
2022/01/19 05:43:18;;;;;;;21.90;13.45;;;0.60;82.30;;;;;;5052781;28;20440;-79
2022/01/19 05:45:44;;;;;;;23.67;13.73;;;0.60;82.20;;;;;;5053612;28;20023;-78
2022/01/19 05:48:09;;;;;;;24.10;13.55;;;0.50;82.00;;;;;;5053985;28;20059;-81
2022/01/19 05:50:35;;;;;;;24.33;14.63;;;0.50;81.80;;;;;;5056553;28;20028;-78
2022/01/19 05:53:01;;;;;;;22.10;13.93;;;0.50;82.00;;;;;;5056508;28;20334;-79
2022/01/19 05:55:26;;;;;;;27.85;13.85;;;0.40;82.00;;;;;;5052516;28;20024;-78
2022/01/19 05:57:53;;;;;;;22.90;13.80;;;0.40;82.20;;;;;;5052487;28;20066;-77
2022/01/19 06:00:20;;;;;;;20.50;11.80;;;0.40;82.00;;;;;;5051228;28;20029;-80
2022/01/19 06:02:46;;;;;;;20.38;12.60;;;0.40;81.90;;;;;;5052354;28;20500;-79
2022/01/19 06:05:12;;;;;;;20.60;13.15;;;0.40;81.90;;;;;;5052085;28;20033;-78
2022/01/19 06:07:45;;;;;;;21.95;13.30;;;0.40;82.00;;;;;;5070050;28;20044;-78
2022/01/19 06:10:42;;;;;;;20.60;12.45;;;0.30;82.30;;;;;;5076773;28;20025;-78
2022/01/19 06:12:58;;;;;;;21.88;12.77;;;0.10;82.50;;;;;;5077700;28;20021;-78
2022/01/19 06:15:24;;;;;;;20.80;12.13;;;0.10;83.00;;;;;;5076856;28;20047;-79
2022/01/19 06:17:49;;;;;;;21.20;13.10;;;0.10;83.00;;;;;;5076102;28;20021;-78
2022/01/19 06:20:15;;;;;;;20.95;12.70;;;0.20;83.00;;;;;;5059606;28;20036;-80
2022/01/19 06:22:41;;;;;;;21.73;12.98;;;0.20;82.90;;;;;;5067901;28;20449;-79
2022/01/19 06:25:07;;;;;;;19.67;12.23;;;0.30;83.00;;;;;;5050207;28;20021;-80
2022/01/19 06:27:38;;;;;;;18.98;12.20;;;0.30;82.80;;;;;;5058125;28;20032;-79
2022/01/19 06:30:04;;;;;;;21.40;12.45;;;0.30;82.70;;;;;;5044687;28;20036;-78
2022/01/19 06:32:32;;;;;;;21.00;13.02;;;0.40;82.60;;;;;;5071733;28;20040;-81
2022/01/19 06:34:59;;;;;;;28.08;15.02;;;0.40;82.40;;;;;;5058363;28;20025;-80
2022/01/19 06:37:25;;;;;;;24.45;14.63;;;0.40;81.90;;;;;;5051731;28;20059;-81
2022/01/19 06:39:52;;;;;;;34.45;16.63;;;0.30;81.50;;;;;;5051605;28;20025;-80
2022/01/19 06:42:17;;;;;;;28.77;16.63;;;0.30;81.70;;;;;;5051783;28;20025;-79
2022/01/19 06:44:43;;;;;;;25.27;14.63;;;0.30;81.70;;;;;;5051550;28;20051;-80
2022/01/19 06:47:09;;;;;;;25.88;15.30;;;0.30;81.60;;;;;;5051600;28;20033;-79
2022/01/19 06:49:34;;;;;;;25.73;13.45;;;0.30;81.70;;;;;;5051536;28;20021;-80
2022/01/19 06:52:02;;;;;;;22.00;11.95;;;0.30;81.70;;;;;;5052563;28;20036;-76
2022/01/19 06:54:28;;;;;;;17.95;8.95;;;0.30;81.70;;;;;;5051309;28;20025;-76
2022/01/19 06:56:54;;;;;;;34.58;14.77;;;1.40;96.30;;;;;;5051319;28;20481;-78
2022/01/19 06:59:21;;;;;;;25.10;15.35;;;2.20;99.80;;;;;;5034880;28;20071;-77
2022/01/19 07:01:47;;;;;;;37.65;15.60;;;2.80;96.40;;;;;;5051146;28;20028;-77
2022/01/19 07:04:15;;;;;;;23.00;13.80;;;2.80;86.70;;;;;;5051332;28;20025;-77
2022/01/19 07:06:41;;;;;;;24.40;12.88;;;2.90;81.70;;;;;;5051428;28;20389;-76
2022/01/19 07:09:07;;;;;;;15.80;9.80;;;2.80;78.00;;;;;;5051101;28;20025;-76
2022/01/19 07:11:32;;;;;;;17.27;9.50;;;2.80;77.30;;;;;;5052711;28;20025;-75
2022/01/19 07:13:58;;;;;;;14.25;9.50;;;2.70;76.30;;;;;;5055438;28;20140;-76
2022/01/19 07:16:24;;;;;;;15.00;8.85;;;2.50;76.30;;;;;;5038395;28;20029;-75
2022/01/19 07:18:50;;;;;;;12.15;8.80;;;2.40;75.00;;;;;;5055341;28;20021;-75
2022/01/19 07:21:15;;;;;;;15.68;9.38;;;2.30;75.10;;;;;;5055106;28;20108;-75
2022/01/19 07:23:41;;;;;;;16.30;10.77;;;2.30;75.60;;;;;;5054790;28;20115;-76
2022/01/19 07:26:07;;;;;;;14.32;10.07;;;2.20;75.00;;;;;;5054876;28;20385;-75
2022/01/19 07:28:32;;;;;;;15.60;10.77;;;2.20;75.50;;;;;;5054936;28;20428;-76
2022/01/19 07:30:58;;;;;;;18.17;10.45;;;2.20;76.00;;;;;;5055125;28;20029;-79
2022/01/19 07:33:23;;;;;;;26.45;13.80;;;2.30;75.10;;;;;;5055235;28;20017;-84
2022/01/19 07:35:51;;;;;;;23.38;13.40;;;2.20;73.70;;;;;;5056070;28;20052;-83
2022/01/19 07:38:18;;;;;;;24.35;12.98;;;2.00;73.60;;;;;;5056107;28;20410;-81
2022/01/19 07:40:43;;;;;;;20.75;13.38;;;1.80;73.50;;;;;;5055612;28;20429;-83
2022/01/19 07:43:09;;;;;;;23.13;13.50;;;1.50;73.90;;;;;;5055350;28;20036;-80
2022/01/19 07:45:35;;;;;;;24.23;14.10;;;1.30;74.50;;;;;;5038294;28;20034;-81
2022/01/19 07:48:00;;;;;;;19.50;11.93;;;1.20;75.10;;;;;;5054777;28;20095;-84
2022/01/19 07:50:26;;;;;;;15.50;9.57;;;1.10;75.60;;;;;;5054743;28;20158;-84
2022/01/19 07:52:52;;;;;;;19.55;9.95;;;1.00;75.70;;;;;;5054618;28;20421;-83
2022/01/19 07:55:18;;;;;;;17.90;11.00;;;1.10;76.70;;;;;;5054776;28;20052;-83
2022/01/19 07:57:48;;;;;;;20.48;11.32;;;1.10;76.90;;;;;;5054555;28;20041;-84
2022/01/19 08:00:14;;;;;;;19.33;10.90;;;1.10;76.70;;;;;;5054406;28;20079;-83
2022/01/19 08:02:40;;;;;;;19.05;11.52;;;1.20;76.40;;;;;;5054499;28;20021;-80
2022/01/19 08:05:07;;;;;;;18.17;11.02;;;1.20;76.50;;;;;;5054438;28;20031;-79
2022/01/19 08:07:33;;;;;;;16.20;9.68;;;1.30;76.90;;;;;;5054505;28;20066;-79
2022/01/19 08:10:00;;;;;;;16.83;10.10;;;1.40;76.70;;;;;;5054190;28;20036;-83
2022/01/19 08:12:25;;;;;;;16.98;10.38;;;1.50;76.30;;;;;;5054436;28;20063;-84
2022/01/19 08:14:52;;;;;;;16.10;10.25;;;1.50;75.70;;;;;;5037855;28;20438;-82
2022/01/19 08:17:19;;;;;;;21.27;12.82;;;1.50;75.30;;;;;;5054176;28;20405;-82
2022/01/19 08:19:45;;;;;;;21.90;12.52;;;1.40;75.10;;;;;;5054165;28;20025;-83
2022/01/19 08:22:10;;;;;;;31.13;17.05;;;1.40;75.40;;;;;;5054026;28;20040;-77
2022/01/19 08:24:36;;;;;;;40.97;21.10;;;1.20;76.10;;;;;;5053566;28;20024;-78
2022/01/19 08:27:02;;;;;;;25.23;14.60;;;1.20;76.70;;;;;;5053743;28;20131;-78
2022/01/19 08:29:27;;;;;;;22.08;13.40;;;1.20;77.00;;;;;;5054115;28;20147;-77
2022/01/19 08:31:53;;;;;;;25.52;13.25;;;1.30;76.60;;;;;;5053882;28;20054;-78
2022/01/19 08:34:20;;;;;;;18.40;11.50;;;1.40;76.20;;;;;;5054046;28;20032;-78
2022/01/19 08:36:46;;;;;;;37.28;19.92;;;1.60;76.00;;;;;;5053567;28;20040;-77
2022/01/19 08:39:11;;;;;;;37.90;17.70;;;1.60;76.30;;;;;;5053748;28;20083;-78
2022/01/19 08:41:39;;;;;;;35.38;19.25;;;1.70;76.20;;;;;;5058957;28;20029;-78
2022/01/19 08:44:05;;;;;;;27.05;16.33;;;1.70;76.40;;;;;;5067691;28;20049;-78
2022/01/19 08:46:30;;;;;;;28.65;14.50;;;1.60;76.30;;;;;;5060578;28;20387;-78
2022/01/19 08:48:56;;;;;;;27.67;15.27;;;1.60;77.00;;;;;;5053675;28;20036;-78
2022/01/19 08:51:22;;;;;;;24.60;13.93;;;1.70;76.90;;;;;;5053645;28;20017;-83
2022/01/19 08:53:47;;;;;;;24.33;14.60;;;1.90;76.70;;;;;;5053403;28;20477;-78
2022/01/19 08:56:13;;;;;;;31.33;15.25;;;2.10;75.70;;;;;;5053222;28;20029;-78
2022/01/19 08:58:40;;;;;;;21.52;13.13;;;2.30;75.20;;;;;;5053574;28;20056;-78
2022/01/19 09:01:06;;;;;;;22.25;12.60;;;2.50;74.00;;;;;;5053068;28;20025;-77
2022/01/19 09:03:31;;;;;;;21.27;13.52;;;2.70;72.70;;;;;;5053465;28;20032;-78
2022/01/19 09:05:57;;;;;;;21.40;13.70;;;2.90;71.20;;;;;;5053098;28;20052;-78
2022/01/19 09:08:23;;;;;;;21.25;13.15;;;3.10;70.40;;;;;;5053229;28;20028;-78
2022/01/19 09:10:50;;;;;;;21.77;12.85;;;3.30;69.90;;;;;;5053230;28;20028;-80
2022/01/19 09:13:17;;;;;;;20.73;12.40;;;3.40;69.30;;;;;;5053032;28;20488;-83
2022/01/19 09:15:42;;;;;;;21.55;12.52;;;3.70;69.20;;;;;;5052971;28;20029;-79
2022/01/19 09:18:08;;;;;;;23.15;12.15;;;4.00;68.40;;;;;;5052760;28;20036;-79
2022/01/19 09:20:34;;;;;;;20.38;12.02;;;4.20;67.50;;;;;;5053124;28;20435;-79
2022/01/19 09:23:02;;;;;;;17.60;10.82;;;4.60;66.70;;;;;;5052913;28;20056;-79
2022/01/19 09:25:28;;;;;;;18.92;10.45;;;4.90;66.00;;;;;;5053003;28;20021;-80
2022/01/19 09:27:54;;;;;;;16.10;10.40;;;5.20;64.70;;;;;;5052692;28;20021;-78
2022/01/19 09:30:24;;;;;;;16.40;9.85;;;5.50;63.70;;;;;;5052952;28;20477;-82
2022/01/19 09:33:07;;;;;;;13.80;9.75;;;5.80;62.10;;;;;;5052822;28;20167;-83
2022/01/19 09:38:40;;;;;;;13.00;9.18;;;6.30;59.80;;;;;;5029183;28;20102;-82
2022/01/19 09:41:07;;;;;;;13.02;8.60;;;6.60;58.00;;;;;;5056281;28;20119;-83
2022/01/19 09:43:33;;;;;;;16.30;9.02;;;6.80;57.40;;;;;;5055757;28;20385;-83
2022/01/19 09:46:00;;;;;;;14.60;9.10;;;7.00;56.10;;;;;;5055559;28;20025;-83
2022/01/19 09:48:28;;;;;;;14.40;9.40;;;7.20;55.30;;;;;;5055770;28;20028;-81
2022/01/19 09:50:56;;;;;;;14.27;9.32;;;7.30;54.20;;;;;;5055633;28;20366;-82
2022/01/19 09:53:23;;;;;;;15.57;9.68;;;7.50;53.70;;;;;;5055525;28;20131;-83
2022/01/19 09:55:49;;;;;;;16.45;9.65;;;7.60;52.60;;;;;;5055748;28;20028;-83
2022/01/19 09:58:17;;;;;;;17.25;9.88;;;7.70;52.20;;;;;;5055722;28;20067;-81
2022/01/19 10:00:43;;;;;;;15.20;10.07;;;7.80;52.30;;;;;;5056150;28;20028;-84
2022/01/19 10:03:16;;;;;;;13.32;8.65;;;8.10;52.10;;;;;;5056048;28;20029;-83
2022/01/19 10:06:09;;;;;;;16.75;9.32;;;8.10;52.20;;;;;;5055242;28;20435;-83
2022/01/19 10:08:38;;;;;;;17.58;9.40;;;8.30;51.30;;;;;;5051040;28;20032;-81
2022/01/19 10:11:19;;;;;;;15.82;9.65;;;8.40;50.90;;;;;;5055670;28;20021;-82
2022/01/19 10:16:59;;;;;;;14.68;8.65;;;8.60;50.10;;;;;;5073707;28;20166;-83
2022/01/19 10:19:29;;;;;;;15.02;8.88;;;8.80;49.70;;;;;;5055233;28;20032;-82
2022/01/19 10:22:14;;;;;;;14.25;8.57;;;9.10;49.50;;;;;;5055503;28;20069;-80
2022/01/19 10:24:55;;;;;;;11.05;7.10;;;9.30;48.60;;;;;;5055299;28;20027;-82
2022/01/19 10:27:28;;;;;;;13.23;7.45;;;9.60;47.70;;;;;;5055787;28;20503;-81
2022/01/19 10:30:03;;;;;;;13.48;7.57;;;9.90;47.30;;;;;;5055850;28;20025;-81
2022/01/19 10:32:40;;;;;;;11.60;6.00;;;10.20;46.20;;;;;;5056066;28;20051;-80
2022/01/19 10:35:22;;;;;;;10.20;6.35;;;10.40;44.70;;;;;;5055606;28;20046;-80
2022/01/19 10:38:15;;;;;;;9.48;5.28;;;10.70;42.80;;;;;;5055424;28;20085;-80
2022/01/19 10:40:44;;;;;;;8.77;5.80;;;10.90;41.80;;;;;;5055038;28;20165;-78
2022/01/19 10:43:40;;;;;;;8.32;5.03;;;11.00;41.00;;;;;;5073341;28;20021;-78
2022/01/19 10:46:24;;;;;;;9.57;6.78;;;11.10;40.40;;;;;;5074773;28;20107;-79
2022/01/19 10:48:57;;;;;;;12.15;6.88;;;10.90;41.90;;;;;;5055724;28;20043;-79
2022/01/19 10:51:23;;;;;;;11.43;6.47;;;11.20;42.50;;;;;;5075289;28;20495;-79
2022/01/19 10:54:17;;;;;;;10.52;6.13;;;11.40;40.40;;;;;;5056038;28;20119;-79
2022/01/19 10:56:47;;;;;;;8.77;5.60;;;11.50;39.80;;;;;;5072347;28;20507;-81
2022/01/19 10:59:16;;;;;;;9.27;5.60;;;11.70;39.10;;;;;;5054547;28;20021;-80
2022/01/19 11:01:45;;;;;;;9.52;5.25;;;11.80;38.90;;;;;;5072454;28;20077;-77
2022/01/19 11:04:33;;;;;;;13.13;5.47;;;11.60;38.00;;;;;;5054385;28;20028;-78
2022/01/19 11:07:02;;;;;;;9.07;5.28;;;11.50;39.10;;;;;;5072526;28;20108;-77
2022/01/19 11:09:29;;;;;;;10.63;4.65;;;11.40;38.80;;;;;;5054285;28;20023;-79
2022/01/19 11:12:10;;;;;;;8.15;4.80;;;10.90;38.70;;;;;;5054336;28;20032;-78
2022/01/19 11:14:37;;;;;;;7.65;5.13;;;10.90;39.80;;;;;;5054582;28;20047;-77
2022/01/19 11:17:03;;;;;;;8.25;4.97;;;11.20;39.50;;;;;;5054117;28;20033;-79
2022/01/19 11:19:29;;;;;;;8.80;5.20;;;11.00;39.20;;;;;;5054671;28;20404;-78
2022/01/19 11:22:08;;;;;;;7.18;4.30;;;11.00;39.10;;;;;;5054174;28;20028;-78
2022/01/19 11:25:16;;;;;;;8.63;4.88;;;10.80;39.40;;;;;;5054113;28;20169;-78
2022/01/19 11:27:47;;;;;;;9.27;5.13;;;10.80;38.70;;;;;;5054611;28;20115;-77
2022/01/19 11:30:23;;;;;;;9.90;5.00;;;10.90;39.20;;;;;;5054533;28;20025;-78
2022/01/19 11:33:15;;;;;;;9.60;6.22;;;11.30;38.40;;;;;;5054294;28;20036;-77
2022/01/19 11:35:47;;;;;;;8.48;5.30;;;11.50;38.30;;;;;;5054279;28;20024;-77
2022/01/19 11:38:40;;;;;;;8.20;4.80;;;11.20;37.60;;;;;;5054606;28;20239;-77
2022/01/19 11:41:08;;;;;;;9.95;5.68;;;10.90;38.50;;;;;;5054350;28;20037;-78
2022/01/19 11:43:47;;;;;;;8.50;5.00;;;10.70;39.00;;;;;;5054355;28;20042;-80
2022/01/19 11:46:39;;;;;;;10.30;5.53;;;10.70;39.40;;;;;;5072260;28;20021;-80
2022/01/19 11:49:07;;;;;;;11.60;6.30;;;11.10;39.30;;;;;;5054675;28;20025;-79
2022/01/19 11:51:54;;;;;;;10.13;5.10;;;11.60;38.10;;;;;;5057337;28;20032;-78
2022/01/19 11:54:29;;;;;;;11.80;6.05;;;11.80;37.70;;;;;;5054324;28;20079;-78
2022/01/19 11:57:02;;;;;;;9.00;5.70;;;12.20;36.80;;;;;;5056786;28;20032;-77
2022/01/19 11:59:46;;;;;;;8.50;5.22;;;12.00;36.60;;;;;;5056271;28;20269;-78
2022/01/19 12:02:32;;;;;;;7.82;5.60;;;12.10;37.00;;;;;;5057361;28;20465;-79
2022/01/19 12:05:09;;;;;;;11.55;5.88;;;11.70;37.30;;;;;;5075526;28;20516;-79
2022/01/19 12:07:37;;;;;;;10.65;6.50;;;11.50;38.20;;;;;;5075593;28;20032;-78
2022/01/19 12:10:06;;;;;;;9.73;6.18;;;11.80;37.90;;;;;;5057519;28;20032;-78
2022/01/19 12:12:37;;;;;;;12.52;5.85;;;12.30;37.50;;;;;;5057120;28;20036;-78
2022/01/19 12:15:07;;;;;;;9.48;6.22;;;12.90;36.40;;;;;;5075234;28;20074;-78
2022/01/19 12:17:55;;;;;;;9.38;6.00;;;13.00;36.00;;;;;;5057061;28;20128;-78
2022/01/19 12:20:50;;;;;;;9.88;5.75;;;14.10;34.40;;;;;;5057174;28;20472;-78
2022/01/19 12:23:30;;;;;;;9.75;6.13;;;14.70;33.00;;;;;;5057261;28;20025;-78
2022/01/19 12:25:59;;;;;;;11.80;7.05;;;14.20;33.30;;;;;;5057232;28;20025;-79
2022/01/19 12:28:48;;;;;;;12.80;6.78;;;15.10;32.30;;;;;;5057075;28;20027;-78
2022/01/19 12:31:29;;;;;;;10.63;6.53;;;16.10;30.60;;;;;;5057354;28;20141;-80
2022/01/19 12:34:09;;;;;;;8.55;6.50;;;16.50;28.80;;;;;;5057136;28;20165;-78
2022/01/19 12:36:46;;;;;;;8.93;6.18;;;16.50;29.10;;;;;;5057014;28;20128;-79
2022/01/19 12:39:30;;;;;;;10.00;7.05;;;16.60;28.10;;;;;;5057138;28;20051;-80
2022/01/19 12:42:17;;;;;;;11.10;7.20;;;17.60;27.10;;;;;;5057103;28;20025;-79
2022/01/19 12:44:54;;;;;;;11.88;6.93;;;17.90;25.60;;;;;;5057349;28;20028;-79
2022/01/19 12:47:26;;;;;;;12.52;8.23;;;16.70;27.90;;;;;;5075573;28;20061;-80
2022/01/19 12:49:58;;;;;;;10.90;7.65;;;16.60;27.90;;;;;;5058374;28;20453;-80
2022/01/19 12:52:27;;;;;;;15.38;9.35;;;16.40;28.20;;;;;;5058365;28;20027;-80
2022/01/19 12:54:54;;;;;;;13.13;8.57;;;16.30;28.90;;;;;;5058340;28;20024;-79
2022/01/19 12:57:21;;;;;;;12.05;9.43;;;15.90;29.60;;;;;;5057908;28;20039;-78
2022/01/19 12:59:49;;;;;;;12.88;8.13;;;15.60;30.10;;;;;;5069542;28;20052;-79
2022/01/19 13:02:17;;;;;;;16.20;9.15;;;16.30;29.50;;;;;;5057763;28;20051;-79
2022/01/19 13:04:48;;;;;;;12.25;8.77;;;16.30;29.20;;;;;;5057100;28;20025;-80
2022/01/19 13:07:17;;;;;;;13.10;8.05;;;15.60;30.20;;;;;;5056712;28;20021;-80
2022/01/19 13:10:13;;;;;;;13.02;8.70;;;15.50;31.30;;;;;;5056053;28;20028;-79
2022/01/19 13:12:55;;;;;;;11.43;8.27;;;16.50;30.30;;;;;;5056553;28;20048;-80
2022/01/19 13:15:21;;;;;;;11.75;8.60;;;16.50;28.90;;;;;;5056577;28;20029;-79
2022/01/19 13:17:52;;;;;;;10.48;8.50;;;17.40;28.40;;;;;;5056454;28;20537;-80
2022/01/19 13:20:23;;;;;;;21.17;7.95;;;17.90;26.70;;;;;;5052746;28;20036;-80
2022/01/19 13:22:54;;;;;;;11.07;8.52;;;17.40;26.90;;;;;;5056274;28;20456;-80
2022/01/19 13:25:27;;;;;;;12.93;8.52;;;17.90;26.60;;;;;;5056328;28;20362;-80
2022/01/19 13:27:57;;;;;;;9.98;8.50;;;18.00;26.20;;;;;;5056176;28;20020;-79
2022/01/19 13:30:24;;;;;;;12.10;8.15;;;17.70;25.80;;;;;;5056343;28;20024;-79
2022/01/19 13:32:51;;;;;;;14.70;9.23;;;18.60;26.70;;;;;;5056082;28;20020;-79
2022/01/19 13:35:17;;;;;;;16.55;10.55;;;19.00;25.70;;;;;;5056046;28;20033;-79
2022/01/19 13:37:55;;;;;;;15.68;10.05;;;18.50;25.30;;;;;;5056230;28;20121;-79
2022/01/19 13:40:31;;;;;;;14.82;11.32;;;18.30;25.90;;;;;;5056409;28;20030;-79
2022/01/19 13:43:04;;;;;;;15.90;10.88;;;17.20;27.60;;;;;;5058047;28;20040;-79
2022/01/19 13:45:48;;;;;;;14.98;10.20;;;15.80;30.60;;;;;;5056675;28;20028;-79
2022/01/19 13:50:49;;;;;;;15.45;11.02;;;16.80;31.50;;;;;;5073888;28;20042;-79
2022/01/19 13:53:24;;;;;;;10.93;8.55;;;16.60;30.60;;;;;;5055608;28;20556;-79
2022/01/19 13:55:49;;;;;;;15.37;9.93;;;14.80;32.90;;;;;;5040064;28;20127;-78
2022/01/19 13:58:16;;;;;;;14.93;9.90;;;12.80;36.80;;;;;;5055834;28;20115;-78
2022/01/19 14:01:07;;;;;;;14.35;10.18;;;11.10;42.60;;;;;;5055462;28;20024;-79
2022/01/19 14:03:55;;;;;;;17.40;10.73;;;10.00;46.20;;;;;;5055771;28;20016;-78
2022/01/19 14:06:37;;;;;;;16.55;9.65;;;9.60;48.40;;;;;;5055677;28;20032;-78
2022/01/19 14:09:27;;;;;;;17.35;10.50;;;9.70;48.90;;;;;;5055760;28;20024;-80
2022/01/19 14:12:11;;;;;;;17.55;11.15;;;9.50;48.80;;;;;;5055672;28;20032;-78
2022/01/19 14:14:43;;;;;;;16.17;10.82;;;9.20;48.90;;;;;;5055643;28;20025;-77
2022/01/19 14:17:34;;;;;;;16.92;10.73;;;8.60;50.70;;;;;;5055378;28;20094;-77
2022/01/19 14:20:00;;;;;;;18.80;11.43;;;7.80;53.20;;;;;;5073909;28;20077;-79
2022/01/19 14:22:31;;;;;;;21.98;12.27;;;7.00;56.70;;;;;;5055070;28;20052;-78